Tri Cities, Washington
Current Conditions -  °F | °C
As of 8:53 AM on Sunday 21 Dec 2014 (Local Time) from KPSC Reporting Station
Clear Clear  
Wind Chill: 53°   Ceiling: Unl
Heat Index: 53°   Visibility: 10mi
Dew Point: 42°   Wind: 17mph
Humidity: 66%   Direction: 240°WSW
Pressure: 29.84"   Gusts: NA
Location:  46.2289°N, 119.099°W
Report Text: KPSC 211653Z 24015KT 10SM CLR 12/06 A2984 RMK AO2 SLP103 T01170056
Loading
Personal Weather Stations






























Interactive Weather Map New forecast layout! Learn more

10-Day Weather Forecast

Advertisements
Track Severe Weather on mobile